Terminal Aerodrome Forecast
Issued by NWS

Home | Current Version | Previous Version | Text Only | Print | Product List | Glossary On
Versions: 1 2 3 4 5 6 7 8 9 10 11 12 13 14 15 16
000
FTUS44 KBMX 101900 AAA
TAFMGM
TAF AMD
KMGM 101904Z 1019/1118 34012KT 3SM SHRA VCTS SCT040CB BKN080
     FM102000 29007KT P6SM VCTS SCT050CB
     FM110100 VRB03KT P6SM SCT050 BKN100
     FM110800 VRB02KT 5SM BR SCT015
     FM111400 34004KT P6SM SCT030=

USA.gov is the U.S. government's official web portal to all federal, state and local government web resources and services.